createdAt,value
2017-09-20T00:01:41.935Z,12.90
2017-09-20T00:04:10.227Z,12.90
2017-09-20T00:06:38.483Z,12.90
2017-09-20T00:09:06.745Z,12.90
2017-09-20T00:11:34.242Z,12.90
2017-09-20T00:14:01.727Z,12.80
2017-09-20T00:16:29.229Z,12.90
2017-09-20T00:18:56.716Z,12.80
2017-09-20T00:21:24.228Z,12.80
2017-09-20T00:23:51.719Z,12.80
2017-09-20T00:26:19.990Z,12.70
2017-09-20T00:28:48.240Z,12.60
2017-09-20T00:31:15.764Z,12.60
2017-09-20T00:33:43.249Z,12.60
2017-09-20T00:36:10.747Z,12.50
2017-09-20T00:38:38.997Z,12.30
2017-09-20T00:41:07.351Z,12.30
2017-09-20T00:43:34.842Z,12.30
2017-09-20T00:46:03.124Z,12.20
2017-09-20T00:48:31.372Z,12.10
2017-09-20T00:50:58.860Z,12.10
2017-09-20T00:53:26.361Z,12.10
2017-09-20T00:55:53.849Z,12.00
2017-09-20T00:58:21.339Z,12.00
2017-09-20T01:00:48.857Z,11.90
2017-09-20T01:03:16.352Z,11.90
2017-09-20T01:05:43.855Z,11.80
2017-09-20T01:08:11.368Z,11.70
2017-09-20T01:10:38.863Z,11.70
2017-09-20T01:13:06.359Z,11.70
2017-09-20T01:15:33.840Z,11.70
2017-09-20T01:18:02.157Z,11.60
2017-09-20T01:20:41.507Z,11.60
2017-09-20T01:23:19.973Z,11.60
2017-09-20T01:25:47.467Z,11.60
2017-09-20T01:28:14.967Z,11.60
2017-09-20T01:30:43.212Z,11.60
2017-09-20T01:33:10.720Z,11.60
2017-09-20T01:35:38.221Z,11.60
2017-09-20T01:38:05.702Z,11.70
2017-09-20T01:40:33.203Z,11.70
2017-09-20T01:43:00.679Z,11.80
2017-09-20T01:45:28.193Z,11.80
2017-09-20T01:47:56.443Z,11.90
2017-09-20T01:50:23.943Z,11.90
2017-09-20T01:52:51.427Z,12.00
2017-09-20T01:55:18.931Z,12.00
2017-09-20T01:57:46.415Z,12.00
2017-09-20T02:00:13.903Z,12.10
2017-09-20T02:02:41.383Z,12.10
2017-09-20T02:05:08.895Z,12.20
2017-09-20T02:07:36.387Z,12.20
2017-09-20T02:10:04.653Z,12.20
2017-09-20T02:12:32.153Z,12.30
2017-09-20T02:14:59.635Z,12.30
2017-09-20T02:17:27.127Z,12.30
2017-09-20T02:19:54.616Z,12.30
2017-09-20T02:22:22.136Z,12.30
2017-09-20T02:24:49.616Z,12.30
2017-09-20T02:27:17.105Z,12.30
2017-09-20T02:29:45.357Z,12.30
2017-09-20T02:32:12.852Z,12.30
2017-09-20T02:34:41.123Z,12.40
2017-09-20T02:37:09.393Z,12.40
2017-09-20T02:39:36.876Z,12.40
2017-09-20T02:42:04.363Z,12.40
2017-09-20T02:44:32.617Z,12.50
2017-09-20T02:47:00.113Z,12.40
2017-09-20T02:49:27.602Z,12.50
2017-09-20T02:51:55.859Z,12.50
2017-09-20T02:54:23.348Z,12.40
2017-09-20T02:56:50.860Z,12.50
2017-09-20T02:59:18.348Z,12.50
2017-09-20T03:01:46.607Z,12.40
2017-09-20T03:04:14.163Z,12.40
2017-09-20T03:06:41.647Z,12.40
2017-09-20T03:09:09.911Z,12.40
2017-09-20T03:11:38.175Z,12.40
2017-09-20T03:14:05.668Z,12.40
2017-09-20T03:16:33.153Z,12.40
2017-09-20T03:19:00.662Z,12.40
2017-09-20T03:21:28.168Z,12.40
2017-09-20T03:23:55.676Z,12.40
2017-09-20T03:26:23.940Z,12.40
2017-09-20T03:28:51.462Z,12.40
2017-09-20T03:31:18.960Z,12.40
2017-09-20T03:33:46.468Z,12.40
2017-09-20T03:36:13.976Z,12.40
2017-09-20T03:38:41.488Z,12.40
2017-09-20T03:41:08.991Z,12.50
2017-09-20T03:43:36.481Z,12.50
2017-09-20T03:46:04.002Z,12.60
2017-09-20T03:48:31.484Z,12.60
2017-09-20T03:50:59.000Z,12.60
2017-09-20T03:53:26.492Z,12.60
2017-09-20T03:55:54.765Z,12.60
2017-09-20T03:58:22.268Z,12.60
2017-09-20T04:00:49.830Z,12.60
2017-09-20T04:03:17.320Z,12.60
2017-09-20T04:05:44.821Z,12.50
2017-09-20T04:08:12.316Z,12.50
2017-09-20T04:10:39.820Z,12.50
2017-09-20T04:13:08.071Z,12.60
2017-09-20T04:15:35.558Z,12.60
2017-09-20T04:18:03.829Z,12.50
2017-09-20T04:20:31.324Z,12.50
2017-09-20T04:22:58.845Z,12.50
2017-09-20T04:25:26.339Z,12.50
2017-09-20T04:27:53.846Z,12.60
2017-09-20T04:30:22.119Z,12.50
2017-09-20T04:32:49.647Z,12.50
2017-09-20T04:35:17.145Z,12.50
2017-09-20T04:37:45.425Z,12.50
2017-09-20T04:40:13.683Z,12.50
2017-09-20T04:42:41.205Z,12.50
2017-09-20T04:45:08.737Z,12.40
2017-09-20T04:47:36.243Z,12.40
2017-09-20T04:50:03.730Z,12.50
2017-09-20T04:52:31.246Z,12.50
2017-09-20T04:54:58.767Z,12.40
2017-09-20T04:57:26.258Z,12.40
2017-09-20T04:59:53.760Z,12.50
2017-09-20T05:02:22.048Z,12.40
2017-09-20T05:04:49.599Z,12.40
2017-09-20T05:07:17.872Z,12.40
2017-09-20T05:09:45.427Z,12.40
2017-09-20T05:12:13.703Z,12.40
2017-09-20T05:14:41.992Z,12.50
2017-09-20T05:17:09.511Z,12.40
2017-09-20T05:19:37.015Z,12.50
2017-09-20T05:22:04.506Z,12.50
2017-09-20T05:24:32.019Z,12.40
2017-09-20T05:26:59.539Z,12.50
2017-09-20T05:29:27.118Z,12.50
2017-09-20T05:31:54.632Z,12.60
2017-09-20T05:34:22.132Z,12.60
2017-09-20T05:36:49.646Z,12.60
2017-09-20T05:39:17.155Z,12.60
2017-09-20T05:41:44.670Z,12.60
2017-09-20T05:44:12.152Z,12.60
2017-09-20T05:46:39.652Z,12.60
2017-09-20T05:49:07.142Z,12.70
2017-09-20T05:51:34.680Z,12.70
2017-09-20T05:54:05.004Z,12.60
2017-09-20T05:56:32.808Z,12.70
2017-09-20T05:59:00.318Z,12.70
2017-09-20T06:01:27.874Z,12.80
2017-09-20T06:03:55.358Z,12.90
2017-09-20T06:06:22.887Z,12.90
2017-09-20T06:08:50.384Z,12.90
2017-09-20T06:11:17.898Z,12.90
2017-09-20T06:13:45.398Z,12.90
2017-09-20T06:16:12.913Z,12.90
2017-09-20T06:18:40.435Z,12.90
2017-09-20T06:21:07.944Z,12.80
2017-09-20T06:23:35.460Z,12.90
2017-09-20T06:26:02.949Z,13.00
2017-09-20T06:28:31.266Z,13.00
2017-09-20T06:30:58.785Z,13.00
2017-09-20T06:33:26.309Z,13.10
2017-09-20T06:35:53.819Z,13.00
2017-09-20T06:38:21.329Z,13.10
2017-09-20T06:40:48.833Z,13.10
2017-09-20T06:43:16.336Z,13.10
2017-09-20T06:45:43.839Z,13.10
2017-09-20T06:48:11.369Z,13.10
2017-09-20T06:50:38.865Z,13.10
2017-09-20T06:53:06.398Z,13.10
2017-09-20T06:55:33.895Z,13.10
2017-09-20T06:58:01.449Z,13.20
2017-09-20T07:00:29.020Z,13.20
2017-09-20T07:02:56.524Z,13.20
2017-09-20T07:05:24.790Z,13.30
2017-09-20T07:07:53.110Z,13.30
2017-09-20T07:10:20.624Z,13.30
2017-09-20T07:12:48.119Z,13.40
2017-09-20T07:15:15.619Z,13.40
2017-09-20T07:17:43.096Z,13.40
2017-09-20T07:20:11.375Z,13.50
2017-09-20T07:22:39.656Z,13.50
2017-09-20T07:25:07.152Z,13.50
2017-09-20T07:27:34.627Z,13.60
2017-09-20T07:30:02.171Z,13.60
2017-09-20T07:32:29.668Z,13.60
2017-09-20T07:34:57.167Z,13.60
2017-09-20T07:37:24.698Z,13.60
2017-09-20T07:39:52.195Z,13.70
2017-09-20T07:42:19.688Z,13.70
2017-09-20T07:44:47.189Z,13.70
2017-09-20T07:47:14.691Z,13.70
2017-09-20T07:49:42.183Z,13.80
2017-09-20T07:52:10.459Z,14.00
2017-09-20T07:54:37.935Z,14.00
2017-09-20T07:57:05.441Z,14.00
2017-09-20T07:59:32.935Z,14.00
2017-09-20T08:02:00.447Z,14.10
2017-09-20T08:04:27.979Z,14.10
2017-09-20T08:06:55.475Z,14.10
2017-09-20T08:09:22.968Z,14.20
2017-09-20T08:11:50.489Z,14.30
2017-09-20T08:14:17.963Z,14.40
2017-09-20T08:16:45.469Z,14.40
2017-09-20T08:19:12.958Z,14.30
2017-09-20T08:21:40.444Z,14.40
2017-09-20T08:24:07.948Z,14.50
2017-09-20T08:26:35.445Z,14.50
2017-09-20T08:29:02.944Z,14.40
2017-09-20T08:31:31.200Z,14.50
2017-09-20T08:33:58.715Z,14.50
2017-09-20T08:36:26.296Z,14.50
2017-09-20T08:38:53.816Z,14.50
2017-09-20T08:41:21.304Z,14.60
2017-09-20T08:43:48.811Z,14.70
2017-09-20T08:46:17.066Z,14.80
2017-09-20T08:48:44.591Z,14.80
2017-09-20T08:51:12.080Z,14.90
2017-09-20T08:53:39.571Z,14.90
2017-09-20T08:56:07.082Z,14.90
2017-09-20T08:58:34.594Z,14.80
2017-09-20T09:01:02.100Z,14.90
2017-09-20T09:03:29.589Z,14.90
2017-09-20T09:05:57.874Z,14.90
2017-09-20T09:08:25.373Z,14.90
2017-09-20T09:10:52.929Z,15.10
2017-09-20T09:13:20.420Z,15.10
2017-09-20T09:15:47.936Z,15.00
2017-09-20T09:18:15.424Z,15.10
2017-09-20T09:20:42.944Z,15.10
2017-09-20T09:23:10.461Z,15.10
2017-09-20T09:25:38.062Z,15.10
2017-09-20T09:28:05.544Z,15.10
2017-09-20T09:30:33.019Z,15.30
2017-09-20T09:33:00.570Z,15.30
2017-09-20T09:35:28.217Z,15.40
2017-09-20T09:37:55.760Z,15.50
2017-09-20T09:40:23.332Z,15.60
2017-09-20T09:42:50.865Z,15.70
2017-09-20T09:45:18.372Z,15.70
2017-09-20T09:47:45.870Z,15.70
2017-09-20T09:50:13.417Z,15.70
2017-09-20T09:52:40.933Z,15.80
2017-09-20T09:55:09.513Z,15.90
2017-09-20T09:57:37.038Z,16.00
2017-09-20T10:00:04.577Z,15.90
2017-09-20T10:02:32.120Z,16.00
2017-09-20T10:04:59.621Z,16.10
2017-09-20T10:07:27.136Z,16.20
2017-09-20T10:09:54.669Z,16.30
2017-09-20T10:12:22.276Z,16.30
2017-09-20T10:14:49.827Z,16.40
2017-09-20T10:17:18.119Z,16.20
2017-09-20T10:19:45.671Z,16.20
2017-09-20T10:22:13.191Z,16.10
2017-09-20T10:24:40.700Z,16.00
2017-09-20T10:27:08.233Z,15.90
2017-09-20T10:29:35.775Z,16.00
2017-09-20T10:32:03.318Z,16.00
2017-09-20T10:34:30.868Z,16.00
2017-09-20T10:36:58.446Z,16.10
2017-09-20T10:39:25.976Z,16.20
2017-09-20T10:41:53.551Z,16.20
2017-09-20T10:44:21.090Z,16.20
2017-09-20T10:46:48.698Z,16.10
2017-09-20T10:49:17.628Z,16.10
2017-09-20T10:51:45.136Z,16.00
2017-09-20T10:54:12.637Z,16.10
2017-09-20T10:56:40.188Z,16.10
2017-09-20T10:59:08.467Z,16.10
2017-09-20T11:04:09.800Z,16.10
2017-09-20T11:06:37.296Z,16.10
2017-09-20T11:09:04.862Z,16.10
2017-09-20T11:11:32.378Z,16.20
2017-09-20T11:14:00.661Z,16.20
2017-09-20T11:16:28.232Z,16.20
2017-09-20T11:18:55.735Z,16.20
2017-09-20T11:21:23.658Z,16.20
2017-09-20T11:23:51.188Z,16.30
2017-09-20T11:26:18.724Z,16.30
2017-09-20T11:28:46.222Z,16.20
2017-09-20T11:31:14.581Z,16.30
2017-09-20T11:33:42.111Z,16.20
2017-09-20T11:36:09.620Z,16.40
2017-09-20T11:38:37.911Z,16.30
2017-09-20T11:41:10.461Z,16.20
2017-09-20T11:43:38.048Z,16.30
2017-09-20T11:46:05.565Z,16.30
2017-09-20T11:48:33.096Z,16.30
2017-09-20T11:51:00.590Z,16.20
2017-09-20T11:53:28.179Z,16.30
2017-09-20T11:55:57.482Z,16.30
2017-09-20T11:58:25.094Z,16.30
2017-09-20T12:00:52.637Z,16.40
2017-09-20T12:03:20.164Z,16.50
2017-09-20T12:05:47.704Z,16.60
2017-09-20T12:08:15.363Z,16.60
2017-09-20T12:10:43.639Z,16.60
2017-09-20T12:13:11.222Z,16.60
2017-09-20T12:15:38.760Z,16.60
2017-09-20T12:18:06.321Z,16.60
2017-09-20T12:20:33.884Z,16.60
2017-09-20T12:23:01.423Z,16.60
2017-09-20T12:25:28.917Z,16.50
2017-09-20T12:27:56.544Z,16.40
2017-09-20T12:30:24.070Z,16.30
2017-09-20T12:32:51.681Z,16.40
2017-09-20T12:35:19.188Z,16.40
2017-09-20T12:37:46.718Z,16.60
2017-09-20T12:40:14.278Z,16.70
2017-09-20T12:42:41.845Z,16.80
2017-09-20T12:45:09.428Z,16.80
2017-09-20T12:47:36.912Z,16.90
2017-09-20T12:50:04.452Z,16.80
2017-09-20T12:52:31.956Z,16.80
2017-09-20T12:54:59.489Z,16.80
2017-09-20T12:57:27.781Z,16.60
2017-09-20T12:59:56.082Z,16.60
2017-09-20T13:02:23.633Z,16.50
2017-09-20T13:04:51.148Z,16.50
2017-09-20T13:07:18.692Z,16.70
2017-09-20T13:09:46.208Z,16.60
2017-09-20T13:12:13.729Z,16.70
2017-09-20T13:14:41.253Z,16.70
2017-09-20T13:17:08.776Z,16.70
2017-09-20T13:19:36.270Z,16.70
2017-09-20T13:22:03.791Z,16.70
2017-09-20T13:24:31.340Z,16.80
2017-09-20T13:26:58.882Z,16.80
2017-09-20T13:29:26.438Z,16.80
2017-09-20T13:31:53.978Z,16.70
2017-09-20T13:34:22.407Z,16.60
2017-09-20T13:36:49.944Z,16.50
2017-09-20T13:39:18.225Z,16.50
2017-09-20T13:41:46.504Z,16.50
2017-09-20T13:44:14.024Z,16.50
2017-09-20T13:46:41.558Z,16.50
2017-09-20T13:49:09.059Z,16.60
2017-09-20T13:51:36.559Z,16.60
2017-09-20T13:54:04.044Z,16.50
2017-09-20T13:56:31.611Z,16.40
2017-09-20T13:58:59.116Z,16.50
2017-09-20T14:01:26.621Z,16.40
2017-09-20T14:03:54.188Z,16.30
2017-09-20T14:06:21.687Z,16.30
2017-09-20T14:08:49.252Z,16.30
2017-09-20T14:11:16.772Z,16.30
2017-09-20T14:13:44.308Z,16.30
2017-09-20T14:16:11.825Z,16.40
2017-09-20T14:18:39.337Z,16.50
2017-09-20T14:21:06.834Z,16.60
2017-09-20T14:23:34.348Z,16.70
2017-09-20T14:26:01.868Z,16.70
2017-09-20T14:28:29.408Z,16.80
2017-09-20T14:30:57.684Z,16.80
2017-09-20T14:33:25.215Z,16.80
2017-09-20T14:35:52.738Z,16.80
2017-09-20T14:38:20.248Z,16.80
2017-09-20T14:40:48.546Z,16.70
2017-09-20T14:43:16.092Z,16.70
2017-09-20T14:45:43.657Z,16.70
2017-09-20T14:48:13.117Z,16.70
2017-09-20T14:50:40.665Z,16.80
2017-09-20T14:53:08.191Z,16.80
2017-09-20T14:55:35.723Z,16.70
2017-09-20T14:58:03.235Z,16.70
2017-09-20T15:00:30.760Z,16.70
2017-09-20T15:02:58.260Z,16.70
2017-09-20T15:05:25.780Z,16.70
2017-09-20T15:07:53.332Z,16.70
2017-09-20T15:10:20.899Z,16.80
2017-09-20T15:12:48.630Z,16.70
2017-09-20T15:15:16.157Z,16.60
2017-09-20T15:17:43.672Z,16.60
2017-09-20T15:20:11.226Z,16.60
2017-09-20T15:22:38.785Z,16.50
2017-09-20T15:25:06.307Z,16.40
2017-09-20T15:27:33.816Z,16.40
2017-09-20T15:30:01.362Z,16.40
2017-09-20T15:32:28.892Z,16.50
2017-09-20T15:34:56.402Z,16.40
2017-09-20T15:37:23.907Z,16.40
2017-09-20T15:39:51.439Z,16.40
2017-09-20T15:42:18.955Z,16.50
2017-09-20T15:44:46.473Z,16.50
2017-09-20T15:47:14.034Z,16.50
2017-09-20T15:49:41.523Z,16.40
2017-09-20T15:52:09.139Z,16.40
2017-09-20T15:54:36.633Z,16.40
2017-09-20T15:57:04.145Z,16.40
2017-09-20T15:59:31.649Z,16.50
2017-09-20T16:01:59.164Z,16.50
2017-09-20T16:04:31.583Z,16.60
2017-09-20T16:06:59.894Z,16.60
2017-09-20T16:09:27.490Z,16.60
2017-09-20T16:11:55.022Z,16.60
2017-09-20T16:14:22.529Z,16.60
2017-09-20T16:16:50.116Z,16.60
2017-09-20T16:19:17.617Z,16.60
2017-09-20T16:21:45.111Z,16.60
2017-09-20T16:24:13.486Z,16.50
2017-09-20T16:26:41.302Z,16.50
2017-09-20T16:29:08.884Z,16.50
2017-09-20T16:31:36.395Z,16.40
2017-09-20T16:34:03.952Z,16.30
2017-09-20T16:36:31.504Z,16.30
2017-09-20T16:38:59.046Z,16.30
2017-09-20T16:41:26.767Z,16.20
2017-09-20T16:43:54.343Z,16.20
2017-09-20T16:46:21.932Z,16.20
2017-09-20T16:48:50.775Z,16.20
2017-09-20T16:51:18.305Z,16.10
2017-09-20T16:53:46.453Z,16.00
2017-09-20T16:56:14.746Z,16.00
2017-09-20T16:58:42.407Z,15.90
2017-09-20T17:01:10.081Z,15.90
2017-09-20T17:03:37.645Z,15.90
2017-09-20T17:06:05.268Z,15.80
2017-09-20T17:08:32.857Z,15.80
2017-09-20T17:11:01.220Z,15.80
2017-09-20T17:13:28.771Z,15.80
2017-09-20T17:15:56.397Z,15.70
2017-09-20T17:18:24.024Z,15.70
2017-09-20T17:20:51.615Z,15.60
2017-09-20T17:23:19.637Z,15.60
2017-09-20T17:25:47.770Z,15.60
2017-09-20T17:28:15.630Z,15.60
2017-09-20T17:30:43.208Z,15.60
2017-09-20T17:33:12.009Z,15.60
2017-09-20T17:35:39.763Z,15.50
2017-09-20T17:38:07.677Z,15.40
2017-09-20T17:40:35.275Z,15.40
2017-09-20T17:43:04.718Z,15.30
2017-09-20T17:45:32.767Z,15.30
2017-09-20T17:48:00.530Z,15.30
2017-09-20T17:50:28.471Z,15.30
2017-09-20T17:52:56.153Z,15.20
2017-09-20T17:55:23.836Z,15.10
2017-09-20T17:57:51.476Z,15.10
2017-09-20T18:00:19.060Z,15.10
2017-09-20T18:02:46.686Z,15.00
2017-09-20T18:05:14.337Z,15.00
2017-09-20T18:07:41.899Z,15.10
2017-09-20T18:10:09.480Z,15.00
2017-09-20T18:12:37.019Z,15.10
2017-09-20T18:15:04.674Z,15.10
2017-09-20T18:17:33.235Z,15.10
2017-09-20T18:20:00.775Z,15.10
2017-09-20T18:22:28.405Z,15.10
2017-09-20T18:24:56.197Z,15.10
2017-09-20T18:27:23.787Z,15.10
2017-09-20T18:29:51.369Z,15.10
2017-09-20T18:32:18.867Z,15.10
2017-09-20T18:34:47.191Z,15.00
2017-09-20T18:37:14.707Z,15.00
2017-09-20T18:39:42.299Z,15.00
2017-09-20T18:42:09.833Z,14.90
2017-09-20T18:44:37.369Z,14.80
2017-09-20T18:47:04.903Z,14.80
2017-09-20T18:49:32.467Z,14.70
2017-09-20T18:52:00.146Z,14.70
2017-09-20T18:54:27.992Z,14.60
2017-09-20T18:56:55.953Z,14.60
2017-09-20T18:59:23.516Z,14.60
2017-09-20T19:01:51.041Z,14.50
2017-09-20T19:04:18.639Z,14.50
2017-09-20T19:06:46.359Z,14.50
2017-09-20T19:09:13.883Z,14.50
2017-09-20T19:11:41.562Z,14.50
2017-09-20T19:14:09.172Z,14.50
2017-09-20T19:16:36.742Z,14.50
2017-09-20T19:19:04.397Z,14.50
2017-09-20T19:21:31.964Z,14.50
2017-09-20T19:23:59.472Z,14.50
2017-09-20T19:26:27.189Z,14.50
2017-09-20T19:28:54.859Z,14.50
2017-09-20T19:31:22.507Z,14.40
2017-09-20T19:33:50.100Z,14.40
2017-09-20T19:36:17.720Z,14.40
2017-09-20T19:38:45.512Z,14.40
2017-09-20T19:41:13.253Z,14.40
2017-09-20T19:43:40.825Z,14.40
2017-09-20T19:46:08.807Z,14.50
2017-09-20T19:48:36.370Z,14.40
2017-09-20T19:51:03.907Z,14.40
2017-09-20T19:53:31.509Z,14.40
2017-09-20T19:55:59.355Z,14.40
2017-09-20T19:58:26.884Z,14.40
2017-09-20T20:00:54.428Z,14.30
2017-09-20T20:03:21.984Z,14.20
2017-09-20T20:05:49.490Z,14.10
2017-09-20T20:08:17.764Z,14.00
2017-09-20T20:10:45.308Z,14.00
2017-09-20T20:13:13.660Z,13.90
2017-09-20T20:15:41.679Z,13.90
2017-09-20T20:18:09.287Z,13.90
2017-09-20T20:20:36.835Z,13.90
2017-09-20T20:23:04.412Z,13.90
2017-09-20T20:25:31.928Z,13.90
2017-09-20T20:27:59.496Z,13.80
2017-09-20T20:30:26.992Z,13.80
2017-09-20T20:32:54.542Z,13.80
2017-09-20T20:35:22.129Z,13.70
2017-09-20T20:37:50.595Z,13.70
2017-09-20T20:40:18.158Z,13.70
2017-09-20T20:42:45.765Z,13.60
2017-09-20T20:45:13.395Z,13.60
2017-09-20T20:47:41.125Z,13.60
2017-09-20T20:50:08.733Z,13.60
2017-09-20T20:52:36.441Z,13.60
2017-09-20T20:55:04.250Z,13.60
2017-09-20T20:57:32.739Z,13.60
2017-09-20T21:00:00.283Z,13.60
2017-09-20T21:02:27.867Z,13.60
2017-09-20T21:04:55.493Z,13.60
2017-09-20T21:07:23.044Z,13.60
2017-09-20T21:09:50.646Z,13.60
2017-09-20T21:12:18.277Z,13.60
2017-09-20T21:14:46.687Z,13.60
2017-09-20T21:17:14.206Z,13.60
2017-09-20T21:19:41.704Z,13.60
2017-09-20T21:22:09.309Z,13.50
2017-09-20T21:24:36.823Z,13.50
2017-09-20T21:27:04.340Z,13.50
2017-09-20T21:29:31.851Z,13.50
2017-09-20T21:31:59.387Z,13.40
2017-09-20T21:34:27.664Z,13.30
2017-09-20T21:36:55.212Z,13.30
2017-09-20T21:39:22.761Z,13.20
2017-09-20T21:41:50.292Z,13.20
2017-09-20T21:44:17.786Z,13.10
2017-09-20T21:46:45.328Z,13.00
2017-09-20T21:49:12.826Z,12.90
2017-09-20T21:51:40.318Z,12.90
2017-09-20T21:54:07.825Z,12.90
2017-09-20T21:56:35.384Z,12.80
2017-09-20T21:59:02.909Z,12.70
2017-09-20T22:01:30.404Z,12.70
2017-09-20T22:03:57.908Z,12.70
2017-09-20T22:06:25.396Z,12.60
2017-09-20T22:08:52.878Z,12.60
2017-09-20T22:11:20.402Z,12.60
2017-09-20T22:13:47.905Z,12.60
2017-09-20T22:16:27.098Z,12.70
2017-09-20T22:19:06.409Z,12.70
2017-09-20T22:21:45.462Z,12.70
2017-09-20T22:24:24.769Z,12.70
2017-09-20T22:26:51.781Z,12.70
2017-09-20T22:29:19.391Z,12.70
2017-09-20T22:31:46.885Z,12.70
2017-09-20T22:34:14.403Z,12.80
2017-09-20T22:36:41.892Z,12.80
2017-09-20T22:39:09.432Z,12.70
2017-09-20T22:41:36.971Z,12.70
2017-09-20T22:44:04.526Z,12.80
2017-09-20T22:46:32.085Z,12.80
2017-09-20T22:48:59.705Z,12.80
2017-09-20T22:51:27.216Z,12.70
2017-09-20T22:53:54.724Z,12.80
2017-09-20T22:56:22.289Z,12.70
2017-09-20T22:58:49.812Z,12.70
2017-09-20T23:01:17.309Z,12.70
2017-09-20T23:03:44.799Z,12.70
2017-09-20T23:06:12.300Z,12.70
2017-09-20T23:08:39.813Z,12.70
2017-09-20T23:11:07.320Z,12.70
2017-09-20T23:13:34.824Z,12.70
2017-09-20T23:16:02.335Z,12.70
2017-09-20T23:18:29.843Z,12.60
2017-09-20T23:20:57.359Z,12.70
2017-09-20T23:23:24.852Z,12.70
2017-09-20T23:25:52.354Z,12.70
2017-09-20T23:28:20.605Z,12.80
2017-09-20T23:30:48.085Z,12.80
2017-09-20T23:33:15.579Z,12.80
2017-09-20T23:35:43.085Z,12.80
2017-09-20T23:38:10.575Z,12.80
2017-09-20T23:40:38.065Z,12.90
2017-09-20T23:43:05.552Z,12.90
2017-09-20T23:45:33.043Z,12.90
2017-09-20T23:48:00.527Z,12.90
2017-09-20T23:50:28.008Z,12.90
2017-09-20T23:52:55.512Z,13.00
2017-09-20T23:55:23.751Z,13.10
2017-09-20T23:57:51.241Z,13.10
